Time;durP1;ratioP1;P1;durP2;ratioP2;P2;SDS_P1;SDS_P2;PMS_P1;PMS_P2;Temp;Humidity;BMP_temperature;BMP_pressure;BME280_temperature;BME280_humidity;BME280_pressure;Samples;Min_cycle;Max_cycle;Signal;HPM_P1;HPM_P2
2021/07/23 00:00:22;;;;;;;;;20.00;20.00;;;;;;;;5138552;27;45198;-76
2021/07/23 00:02:47;;;;;;;;;22.67;21.33;;;;;;;;5136787;27;45566;-76
2021/07/23 00:05:13;;;;;;;;;18.67;18.67;;;;;;;;5132921;27;45717;-76
2021/07/23 00:07:38;;;;;;;;;18.00;17.00;;;;;;;;5134458;27;45150;-76
2021/07/23 00:10:03;;;;;;;;;26.67;22.67;;;;;;;;5131243;27;45688;-76
2021/07/23 00:12:28;;;;;;;;;23.33;19.67;;;;;;;;5131256;27;46036;-76
2021/07/23 00:14:54;;;;;;;;;23.50;21.50;;;;;;;;5131934;27;45340;-76
2021/07/23 00:17:19;;;;;;;;;19.67;18.33;;;;;;;;5132574;27;45223;-76
2021/07/23 00:19:44;;;;;;;;;19.67;19.00;;;;;;;;5130061;27;47458;-76
2021/07/23 00:22:09;;;;;;;;;21.00;21.00;;;;;;;;5131681;27;45509;-77
2021/07/23 00:24:34;;;;;;;;;22.00;18.67;;;;;;;;5131747;27;45341;-76
2021/07/23 00:27:00;;;;;;;;;21.67;21.67;;;;;;;;5125835;27;45266;-76
2021/07/23 00:29:25;;;;;;;;;23.33;20.67;;;;;;;;5128430;27;45302;-76
2021/07/23 00:31:50;;;;;;;;;20.00;19.33;;;;;;;;5128456;27;45385;-76
2021/07/23 00:34:15;;;;;;;;;23.00;21.67;;;;;;;;5129679;27;45354;-77
2021/07/23 00:36:40;;;;;;;;;23.33;23.00;;;;;;;;5128315;27;45462;-76
2021/07/23 00:39:06;;;;;;;;;22.67;21.67;;;;;;;;5130030;27;45315;-76
2021/07/23 00:41:31;;;;;;;;;22.33;21.67;;;;;;;;5131586;27;46453;-76
2021/07/23 00:43:56;;;;;;;;;22.33;20.33;;;;;;;;5134625;27;44630;-76
2021/07/23 00:46:24;;;;;;;;;21.67;20.67;;;;;;;;5133817;27;45271;-76
2021/07/23 00:48:50;;;;;;;;;24.67;21.00;;;;;;;;5135850;27;45236;-77
2021/07/23 00:51:15;;;;;;;;;21.67;21.67;;;;;;;;5128879;27;47340;-76
2021/07/23 00:53:40;;;;;;;;;22.33;21.00;;;;;;;;5135433;27;45195;-76
2021/07/23 00:56:05;;;;;;;;;20.33;19.67;;;;;;;;5126029;27;45151;-77
2021/07/23 00:58:31;;;;;;;;;22.00;20.67;;;;;;;;5133707;27;45433;-76
2021/07/23 01:00:58;;;;;;;;;21.67;21.33;;;;;;;;5129193;27;46097;-76
2021/07/23 01:03:23;;;;;;;;;23.33;20.67;;;;;;;;5132354;27;45395;-76
2021/07/23 01:05:50;;;;;;;;;17.67;17.67;;;;;;;;5128139;27;45156;-76
2021/07/23 01:08:15;;;;;;;;;21.33;21.33;;;;;;;;5135998;27;45435;-76
2021/07/23 01:10:40;;;;;;;;;24.67;24.67;;;;;;;;5131765;27;45270;-77
2021/07/23 01:13:06;;;;;;;;;20.00;19.00;;;;;;;;5135534;27;44759;-76
2021/07/23 01:15:31;;;;;;;;;22.33;19.33;;;;;;;;5134971;27;45335;-76
2021/07/23 01:17:57;;;;;;;;;24.67;22.33;;;;;;;;5132077;27;47168;-77
2021/07/23 01:20:24;;;;;;;;;19.33;17.33;;;;;;;;5133638;27;46229;-76
2021/07/23 01:22:49;;;;;;;;;21.33;18.00;;;;;;;;5131688;27;45221;-77
2021/07/23 01:25:15;;;;;;;;;20.67;18.67;;;;;;;;5131329;27;45137;-76
2021/07/23 01:27:46;;;;;;;;;20.00;20.00;;;;;;;;5131760;27;45246;-76
2021/07/23 01:30:14;;;;;;;;;20.33;17.67;;;;;;;;5138132;27;46168;-76
2021/07/23 01:32:39;;;;;;;;;23.00;20.00;;;;;;;;5151047;27;45230;-76
2021/07/23 01:35:06;;;;;;;;;20.00;20.00;;;;;;;;5147618;27;45474;-76
2021/07/23 01:37:32;;;;;;;;;21.67;20.00;;;;;;;;5147855;27;45178;-76
2021/07/23 01:39:58;;;;;;;;;20.00;18.33;;;;;;;;5148539;27;45445;-76
2021/07/23 01:42:24;;;;;;;;;21.33;18.33;;;;;;;;5150765;27;45217;-77
2021/07/23 01:44:49;;;;;;;;;23.67;21.00;;;;;;;;5148415;27;45359;-76
2021/07/23 01:47:14;;;;;;;;;20.33;19.33;;;;;;;;5145357;27;45904;-76
2021/07/23 01:49:40;;;;;;;;;20.67;18.33;;;;;;;;5148670;27;45230;-76
2021/07/23 01:52:05;;;;;;;;;19.67;19.67;;;;;;;;5147982;27;45247;-76
2021/07/23 01:54:30;;;;;;;;;17.00;17.00;;;;;;;;5150157;27;45322;-76
2021/07/23 01:56:56;;;;;;;;;21.67;21.67;;;;;;;;5149591;27;45320;-77
2021/07/23 01:59:21;;;;;;;;;21.67;20.00;;;;;;;;5149431;27;45359;-76
2021/07/23 02:01:46;;;;;;;;;20.67;18.00;;;;;;;;5147108;27;45329;-76
2021/07/23 02:04:11;;;;;;;;;21.67;20.67;;;;;;;;5149058;27;45307;-77
2021/07/23 02:06:37;;;;;;;;;21.33;19.33;;;;;;;;5148280;27;45302;-76
2021/07/23 02:09:02;;;;;;;;;21.00;19.67;;;;;;;;5148812;27;48226;-76
2021/07/23 02:11:27;;;;;;;;;20.00;20.00;;;;;;;;5147049;27;45340;-76
2021/07/23 02:13:52;;;;;;;;;18.33;18.33;;;;;;;;5147710;27;45456;-76
2021/07/23 02:16:18;;;;;;;;;24.67;21.00;;;;;;;;5146560;27;45347;-76
2021/07/23 02:18:43;;;;;;;;;25.33;24.33;;;;;;;;5149176;27;46030;-76
2021/07/23 02:21:08;;;;;;;;;24.67;22.00;;;;;;;;5145712;27;45568;-76
2021/07/23 02:23:34;;;;;;;;;21.67;21.00;;;;;;;;5151152;27;45310;-76
2021/07/23 02:25:59;;;;;;;;;19.67;19.67;;;;;;;;5149032;27;45282;-76
2021/07/23 02:28:24;;;;;;;;;20.67;20.67;;;;;;;;5151678;27;45221;-76
2021/07/23 02:30:50;;;;;;;;;18.00;18.00;;;;;;;;5153361;27;45206;-76
2021/07/23 02:33:15;;;;;;;;;19.67;17.67;;;;;;;;5148959;27;45222;-76
2021/07/23 02:35:40;;;;;;;;;20.33;19.00;;;;;;;;5146422;27;45379;-76
2021/07/23 02:38:05;;;;;;;;;21.00;20.33;;;;;;;;5151104;27;46700;-76
2021/07/23 02:40:30;;;;;;;;;24.33;23.33;;;;;;;;5150128;27;45448;-76
2021/07/23 02:42:56;;;;;;;;;18.67;17.33;;;;;;;;5146026;27;45384;-77
2021/07/23 02:45:21;;;;;;;;;19.67;19.67;;;;;;;;5146207;27;45277;-76
2021/07/23 02:47:47;;;;;;;;;18.67;17.67;;;;;;;;5146247;27;45437;-76
2021/07/23 02:50:12;;;;;;;;;16.00;15.00;;;;;;;;5145877;27;45295;-77
2021/07/23 02:52:37;;;;;;;;;21.00;19.33;;;;;;;;5145417;27;45230;-76
2021/07/23 02:55:03;;;;;;;;;19.67;18.67;;;;;;;;5145876;27;45257;-76
2021/07/23 02:57:29;;;;;;;;;17.67;17.33;;;;;;;;5144172;27;47247;-78
2021/07/23 02:59:54;;;;;;;;;19.00;18.67;;;;;;;;5144608;27;45308;-76
2021/07/23 03:02:19;;;;;;;;;22.00;22.00;;;;;;;;5142520;27;45260;-76
2021/07/23 03:04:44;;;;;;;;;23.00;20.67;;;;;;;;5144048;27;45774;-76
2021/07/23 03:07:10;;;;;;;;;20.67;18.00;;;;;;;;5143386;27;45470;-77
2021/07/23 03:09:35;;;;;;;;;22.33;20.33;;;;;;;;5143600;27;45277;-76
2021/07/23 03:12:00;;;;;;;;;17.67;17.00;;;;;;;;5143376;27;45568;-76
2021/07/23 03:14:25;;;;;;;;;20.67;18.33;;;;;;;;5141864;27;45985;-76
2021/07/23 03:16:50;;;;;;;;;20.00;19.67;;;;;;;;5143889;27;46299;-76
2021/07/23 03:19:16;;;;;;;;;20.67;19.00;;;;;;;;5143740;27;45361;-76
2021/07/23 03:21:41;;;;;;;;;20.67;19.00;;;;;;;;5147410;27;45499;-76
2021/07/23 03:24:06;;;;;;;;;22.67;21.00;;;;;;;;5147146;27;45842;-76
2021/07/23 03:26:31;;;;;;;;;17.67;17.00;;;;;;;;5147681;27;45702;-76
2021/07/23 03:28:58;;;;;;;;;21.33;20.00;;;;;;;;5148577;27;45273;-76
2021/07/23 03:31:23;;;;;;;;;19.00;18.00;;;;;;;;5145864;27;45427;-76
2021/07/23 03:33:50;;;;;;;;;17.00;15.67;;;;;;;;5145419;27;45629;-76
2021/07/23 03:36:15;;;;;;;;;21.67;20.00;;;;;;;;5143148;27;47170;-76
2021/07/23 03:38:40;;;;;;;;;20.67;20.00;;;;;;;;5146104;27;45240;-76
2021/07/23 03:41:05;;;;;;;;;21.33;19.00;;;;;;;;5144092;27;45185;-76
2021/07/23 03:43:30;;;;;;;;;23.00;20.67;;;;;;;;5146822;27;45314;-76
2021/07/23 03:45:56;;;;;;;;;21.67;19.00;;;;;;;;5145285;27;45192;-76
2021/07/23 03:48:21;;;;;;;;;18.67;18.00;;;;;;;;5145128;27;45210;-76
2021/07/23 03:50:48;;;;;;;;;22.00;21.67;;;;;;;;5145395;27;45528;-76
2021/07/23 03:53:13;;;;;;;;;22.67;21.00;;;;;;;;5145424;27;45234;-76
2021/07/23 03:55:38;;;;;;;;;20.67;20.33;;;;;;;;5145007;27;46606;-76
2021/07/23 03:58:04;;;;;;;;;18.67;18.33;;;;;;;;5146003;27;44551;-77
2021/07/23 04:00:30;;;;;;;;;23.67;20.33;;;;;;;;5145353;27;45310;-76
2021/07/23 04:02:55;;;;;;;;;23.67;23.00;;;;;;;;5143463;27;45452;-77
2021/07/23 04:05:20;;;;;;;;;19.33;19.00;;;;;;;;5144629;27;45265;-76
2021/07/23 04:07:45;;;;;;;;;22.00;21.33;;;;;;;;5147985;27;45438;-76
2021/07/23 04:10:11;;;;;;;;;21.00;21.00;;;;;;;;5150574;27;45293;-76
2021/07/23 04:12:36;;;;;;;;;22.00;18.33;;;;;;;;5149242;27;45314;-76
2021/07/23 04:15:04;;;;;;;;;22.00;19.00;;;;;;;;5151592;27;47991;-76
2021/07/23 04:17:29;;;;;;;;;21.67;19.67;;;;;;;;5155338;27;45309;-76
2021/07/23 04:19:54;;;;;;;;;23.33;21.33;;;;;;;;5153329;27;45310;-77
2021/07/23 04:22:20;;;;;;;;;22.67;21.33;;;;;;;;5154458;27;45143;-76
2021/07/23 04:24:45;;;;;;;;;23.33;21.33;;;;;;;;5153261;27;45348;-76
2021/07/23 04:27:11;;;;;;;;;22.67;21.00;;;;;;;;5153132;27;45220;-75
2021/07/23 04:29:36;;;;;;;;;25.33;23.67;;;;;;;;5151636;27;45208;-76
2021/07/23 04:32:01;;;;;;;;;20.00;18.67;;;;;;;;5131787;27;45508;-76
2021/07/23 04:34:26;;;;;;;;;27.00;25.00;;;;;;;;5133551;27;45232;-77
2021/07/23 04:36:51;;;;;;;;;25.00;23.67;;;;;;;;5130008;27;45362;-77
2021/07/23 04:39:17;;;;;;;;;23.33;22.00;;;;;;;;5130631;27;45192;-76
2021/07/23 04:41:42;;;;;;;;;25.67;25.67;;;;;;;;5134226;27;45414;-77
2021/07/23 04:44:07;;;;;;;;;22.33;21.67;;;;;;;;5134426;27;45268;-76
2021/07/23 04:46:32;;;;;;;;;24.00;23.33;;;;;;;;5135113;27;45204;-75
2021/07/23 04:48:57;;;;;;;;;25.67;24.33;;;;;;;;5135364;27;44602;-76
2021/07/23 04:51:23;;;;;;;;;26.00;22.33;;;;;;;;5131097;27;45191;-76
2021/07/23 04:53:48;;;;;;;;;23.00;22.33;;;;;;;;5131090;27;46035;-76
2021/07/23 04:56:14;;;;;;;;;23.67;22.00;;;;;;;;5130253;27;45755;-76
2021/07/23 04:58:39;;;;;;;;;25.33;23.33;;;;;;;;5134253;27;45543;-76
2021/07/23 05:01:04;;;;;;;;;21.33;21.33;;;;;;;;5129769;27;46378;-76
2021/07/23 05:03:36;;;;;;;;;25.33;25.33;;;;;;;;5130864;27;46280;-76
2021/07/23 05:06:03;;;;;;;;;27.33;25.67;;;;;;;;5130419;27;45139;-76
2021/07/23 05:08:28;;;;;;;;;21.00;20.00;;;;;;;;5131219;27;45222;-76
2021/07/23 05:10:54;;;;;;;;;27.33;24.00;;;;;;;;5133255;27;45503;-76
2021/07/23 05:13:21;;;;;;;;;23.67;23.33;;;;;;;;5133831;27;45594;-76
2021/07/23 05:15:46;;;;;;;;;21.00;21.00;;;;;;;;5136143;27;45284;-76
2021/07/23 05:18:12;;;;;;;;;24.67;22.67;;;;;;;;5134182;27;45295;-76
2021/07/23 05:20:38;;;;;;;;;21.33;21.33;;;;;;;;5131459;27;46038;-76
2021/07/23 05:23:03;;;;;;;;;24.00;20.67;;;;;;;;5129923;27;47296;-76
2021/07/23 05:25:30;;;;;;;;;22.33;21.00;;;;;;;;5130181;27;45316;-76
2021/07/23 05:27:56;;;;;;;;;24.67;22.67;;;;;;;;5135054;27;44781;-76
2021/07/23 05:30:21;;;;;;;;;24.33;23.00;;;;;;;;5134513;27;45207;-76
2021/07/23 05:32:46;;;;;;;;;26.33;24.33;;;;;;;;5131017;27;45372;-76
2021/07/23 05:35:11;;;;;;;;;28.33;24.00;;;;;;;;5129374;27;45204;-76
2021/07/23 05:37:37;;;;;;;;;23.33;23.33;;;;;;;;5133826;27;45202;-76
2021/07/23 05:40:02;;;;;;;;;23.33;22.00;;;;;;;;5135744;27;45451;-76
2021/07/23 05:42:27;;;;;;;;;27.00;23.33;;;;;;;;5135102;27;47514;-76
2021/07/23 05:44:52;;;;;;;;;25.67;24.33;;;;;;;;5130374;27;45229;-76
2021/07/23 05:47:18;;;;;;;;;23.67;21.33;;;;;;;;5135766;27;45269;-75
2021/07/23 05:49:44;;;;;;;;;24.67;20.33;;;;;;;;5130454;27;45387;-76
2021/07/23 05:52:09;;;;;;;;;24.00;22.33;;;;;;;;5137958;27;45172;-76
2021/07/23 05:54:34;;;;;;;;;19.67;19.67;;;;;;;;5138972;27;45215;-76
2021/07/23 05:56:59;;;;;;;;;24.33;22.67;;;;;;;;5136594;27;45321;-76
2021/07/23 05:59:24;;;;;;;;;23.00;21.67;;;;;;;;5139173;27;45581;-76
2021/07/23 06:01:50;;;;;;;;;27.33;25.33;;;;;;;;5131161;27;46216;-76
2021/07/23 06:04:15;;;;;;;;;23.67;22.33;;;;;;;;5136450;27;45289;-76
2021/07/23 06:06:40;;;;;;;;;23.00;23.00;;;;;;;;5139184;27;45342;-76
2021/07/23 06:09:05;;;;;;;;;25.33;25.33;;;;;;;;5133984;27;46254;-76
2021/07/23 06:11:30;;;;;;;;;26.00;24.67;;;;;;;;5135513;27;45279;-76
2021/07/23 06:13:56;;;;;;;;;27.67;26.33;;;;;;;;5131839;27;45359;-76
2021/07/23 06:16:21;;;;;;;;;25.00;24.00;;;;;;;;5136071;27;45291;-75
2021/07/23 06:18:46;;;;;;;;;24.67;23.33;;;;;;;;5133985;27;45238;-75
2021/07/23 06:21:13;;;;;;;;;19.33;18.33;;;;;;;;5129241;27;47358;-77
2021/07/23 06:23:38;;;;;;;;;24.67;23.67;;;;;;;;5132125;27;45234;-76
2021/07/23 06:26:04;;;;;;;;;27.67;24.00;;;;;;;;5126612;27;45633;-76
2021/07/23 06:28:29;;;;;;;;;25.33;25.00;;;;;;;;5133144;27;45969;-76
2021/07/23 06:30:58;;;;;;;;;21.33;21.33;;;;;;;;5136991;27;46039;-76
2021/07/23 06:33:23;;;;;;;;;28.33;24.33;;;;;;;;5130621;27;45989;-75
2021/07/23 06:35:48;;;;;;;;;27.00;25.67;;;;;;;;5130207;27;45255;-75
2021/07/23 06:38:13;;;;;;;;;22.33;22.00;;;;;;;;5133500;27;45129;-75
2021/07/23 06:40:39;;;;;;;;;21.33;21.33;;;;;;;;5133955;27;45139;-76
2021/07/23 06:43:04;;;;;;;;;23.33;22.00;;;;;;;;5132685;27;45461;-76
2021/07/23 06:45:29;;;;;;;;;27.00;25.00;;;;;;;;5134956;27;45400;-76
2021/07/23 06:47:54;;;;;;;;;25.67;24.67;;;;;;;;5132006;27;45322;-76
2021/07/23 06:50:19;;;;;;;;;22.33;21.00;;;;;;;;5133947;27;46226;-76
2021/07/23 06:52:45;;;;;;;;;31.00;28.67;;;;;;;;5135480;27;44615;-75
2021/07/23 06:55:10;;;;;;;;;25.00;22.33;;;;;;;;5136258;27;44716;-75
2021/07/23 06:57:35;;;;;;;;;23.33;23.33;;;;;;;;5134133;27;45380;-76
2021/07/23 07:00:01;;;;;;;;;26.67;26.67;;;;;;;;5131098;27;45271;-76
2021/07/23 07:02:26;;;;;;;;;28.00;25.00;;;;;;;;5130763;27;44678;-76
2021/07/23 07:04:51;;;;;;;;;23.67;23.33;;;;;;;;5133810;27;45288;-76
2021/07/23 07:07:17;;;;;;;;;24.00;24.00;;;;;;;;5135223;27;45321;-76
2021/07/23 07:09:43;;;;;;;;;24.67;23.33;;;;;;;;5137396;27;45074;-76
2021/07/23 07:12:08;;;;;;;;;27.00;23.33;;;;;;;;5136584;27;45334;-76
2021/07/23 07:14:34;;;;;;;;;25.33;23.00;;;;;;;;5129588;27;45562;-76
2021/07/23 07:16:59;;;;;;;;;23.00;23.00;;;;;;;;5129602;27;45516;-76
2021/07/23 07:19:24;;;;;;;;;18.00;18.00;;;;;;;;5134363;27;46121;-76
2021/07/23 07:21:50;;;;;;;;;25.00;25.00;;;;;;;;5132610;27;44611;-76
2021/07/23 07:24:19;;;;;;;;;28.33;25.00;;;;;;;;5132312;27;45203;-76
2021/07/23 07:26:45;;;;;;;;;22.00;20.00;;;;;;;;5139174;27;45365;-76
2021/07/23 07:29:10;;;;;;;;;23.67;23.33;;;;;;;;5134977;27;45972;-76
2021/07/23 07:31:37;;;;;;;;;27.33;26.67;;;;;;;;5129912;27;45314;-76
2021/07/23 07:34:02;;;;;;;;;27.33;25.33;;;;;;;;5134973;27;44618;-76
2021/07/23 07:36:27;;;;;;;;;28.67;23.00;;;;;;;;5127460;27;46336;-75
2021/07/23 07:38:53;;;;;;;;;27.33;26.00;;;;;;;;5132540;27;46466;-76
2021/07/23 07:41:19;;;;;;;;;23.67;23.67;;;;;;;;5135080;27;45236;-77
2021/07/23 07:43:45;;;;;;;;;26.00;26.00;;;;;;;;5130316;27;45242;-76
2021/07/23 07:46:10;;;;;;;;;24.67;24.00;;;;;;;;5109324;27;45481;-76
2021/07/23 07:48:35;;;;;;;;;28.67;27.67;;;;;;;;5133149;27;46238;-76
2021/07/23 07:51:00;;;;;;;;;24.00;23.00;;;;;;;;5132432;27;45248;-76
2021/07/23 07:53:25;;;;;;;;;26.67;25.00;;;;;;;;5130518;27;44567;-77
2021/07/23 07:55:51;;;;;;;;;27.33;27.33;;;;;;;;5131100;27;45436;-77
2021/07/23 07:58:16;;;;;;;;;29.67;26.67;;;;;;;;5133464;27;47374;-76
2021/07/23 08:00:41;;;;;;;;;26.67;24.67;;;;;;;;5136058;27;45538;-77
2021/07/23 08:03:07;;;;;;;;;27.67;27.67;;;;;;;;5141219;27;44584;-76
2021/07/23 08:05:32;;;;;;;;;27.33;27.33;;;;;;;;5131174;27;45517;-77
2021/07/23 08:07:59;;;;;;;;;27.00;27.00;;;;;;;;5139524;27;45289;-76
2021/07/23 08:10:28;;;;;;;;;27.00;27.00;;;;;;;;5137955;27;44675;-76
2021/07/23 08:12:53;;;;;;;;;31.00;27.33;;;;;;;;5138373;27;45202;-77
2021/07/23 08:15:19;;;;;;;;;30.00;28.67;;;;;;;;5137615;27;45293;-76
2021/07/23 08:17:45;;;;;;;;;24.33;24.33;;;;;;;;5136994;27;47680;-76
2021/07/23 08:20:11;;;;;;;;;27.33;23.67;;;;;;;;5138860;27;45186;-76
2021/07/23 08:22:36;;;;;;;;;30.67;29.33;;;;;;;;5141708;27;44702;-75
2021/07/23 08:25:02;;;;;;;;;28.00;28.00;;;;;;;;5138179;27;45387;-76
2021/07/23 08:27:28;;;;;;;;;25.67;25.67;;;;;;;;5135033;27;45149;-76
2021/07/23 08:29:53;;;;;;;;;24.00;22.00;;;;;;;;5140525;27;45215;-76
2021/07/23 08:32:18;;;;;;;;;24.33;23.00;;;;;;;;5136251;27;45226;-76
2021/07/23 08:34:44;;;;;;;;;24.33;23.00;;;;;;;;5133762;27;45114;-76
2021/07/23 08:37:09;;;;;;;;;26.67;24.67;;;;;;;;5138526;27;45222;-77
2021/07/23 08:39:34;;;;;;;;;28.67;27.67;;;;;;;;5135568;27;45376;-78
2021/07/23 08:42:19;;;;;;;;;28.00;26.67;;;;;;;;5142612;27;45265;-77
2021/07/23 08:44:44;;;;;;;;;26.00;25.00;;;;;;;;5137321;27;45355;-76
2021/07/23 08:47:10;;;;;;;;;26.67;26.00;;;;;;;;5143585;27;46303;-77
2021/07/23 08:49:35;;;;;;;;;30.33;27.33;;;;;;;;5137796;27;45359;-76
2021/07/23 08:52:00;;;;;;;;;30.00;28.33;;;;;;;;5137993;27;44661;-76
2021/07/23 08:54:25;;;;;;;;;34.33;31.00;;;;;;;;5140913;27;45310;-76
2021/07/23 08:56:50;;;;;;;;;28.67;27.67;;;;;;;;5138699;27;45297;-77
2021/07/23 08:59:16;;;;;;;;;30.00;27.00;;;;;;;;5135785;27;45280;-77
2021/07/23 09:01:57;;;;;;;;;23.33;23.33;;;;;;;;5138238;27;45232;-75
2021/07/23 09:04:26;;;;;;;;;29.33;28.33;;;;;;;;5134093;27;46049;-76
2021/07/23 09:07:11;;;;;;;;;30.00;27.67;;;;;;;;5139148;27;46165;-77
2021/07/23 09:09:36;;;;;;;;;27.00;24.67;;;;;;;;5139944;27;46308;-76
2021/07/23 09:12:01;;;;;;;;;29.00;28.00;;;;;;;;5141388;27;45316;-77
2021/07/23 09:14:27;;;;;;;;;26.00;25.33;;;;;;;;5139964;27;45326;-76
2021/07/23 09:16:56;;;;;;;;;31.00;28.33;;;;;;;;5141643;27;45035;-77
2021/07/23 09:19:21;;;;;;;;;30.33;28.00;;;;;;;;5146200;27;45201;-77
2021/07/23 09:21:46;;;;;;;;;31.67;29.67;;;;;;;;5147177;27;44758;-77
2021/07/23 09:24:12;;;;;;;;;29.67;29.00;;;;;;;;5144341;27;45215;-78
2021/07/23 09:26:44;;;;;;;;;30.00;27.00;;;;;;;;5145946;27;45989;-77
2021/07/23 09:29:09;;;;;;;;;30.00;29.00;;;;;;;;5142543;27;44609;-77
2021/07/23 09:31:35;;;;;;;;;28.00;27.00;;;;;;;;5136350;27;45274;-77
2021/07/23 09:34:00;;;;;;;;;25.67;25.33;;;;;;;;5142357;27;47199;-77
2021/07/23 09:36:26;;;;;;;;;21.67;21.67;;;;;;;;5141839;27;45298;-78
2021/07/23 09:38:59;;;;;;;;;28.00;26.67;;;;;;;;5143756;27;45165;-77
2021/07/23 09:41:26;;;;;;;;;24.33;24.33;;;;;;;;5141166;27;45226;-76
2021/07/23 09:43:57;;;;;;;;;25.33;25.00;;;;;;;;5144562;27;45243;-76
2021/07/23 09:46:24;;;;;;;;;26.67;26.67;;;;;;;;5144369;27;46241;-76
2021/07/23 09:48:49;;;;;;;;;25.67;25.00;;;;;;;;5140509;27;44779;-77
2021/07/23 09:51:15;;;;;;;;;26.33;26.33;;;;;;;;5140468;27;44640;-77
2021/07/23 09:53:40;;;;;;;;;23.33;23.33;;;;;;;;5142959;27;44734;-77
2021/07/23 09:56:09;;;;;;;;;24.33;23.33;;;;;;;;5139884;27;45312;-77
2021/07/23 09:58:40;;;;;;;;;27.67;25.33;;;;;;;;5142343;27;44648;-77
2021/07/23 10:01:10;;;;;;;;;24.00;23.33;;;;;;;;5142207;27;45128;-77
2021/07/23 10:03:39;;;;;;;;;23.67;21.33;;;;;;;;5142566;27;45126;-77
2021/07/23 10:06:06;;;;;;;;;22.00;21.67;;;;;;;;5142120;27;48384;-78
2021/07/23 10:08:46;;;;;;;;;22.00;22.00;;;;;;;;5138503;27;44594;-77
2021/07/23 10:11:11;;;;;;;;;20.67;20.67;;;;;;;;5146349;27;45346;-77
2021/07/23 10:13:41;;;;;;;;;22.67;20.67;;;;;;;;5142467;27;45213;-77
2021/07/23 10:16:08;;;;;;;;;21.33;20.33;;;;;;;;5137165;27;46068;-77
2021/07/23 10:18:34;;;;;;;;;18.33;18.33;;;;;;;;5143417;27;44605;-77
2021/07/23 10:21:00;;;;;;;;;21.67;21.33;;;;;;;;5144886;27;44621;-78
2021/07/23 10:23:26;;;;;;;;;20.33;20.33;;;;;;;;5141107;27;45677;-76
2021/07/23 10:25:53;;;;;;;;;19.33;18.00;;;;;;;;5143291;27;45304;-76
2021/07/23 10:28:38;;;;;;;;;20.67;19.67;;;;;;;;5144764;27;44966;-78
2021/07/23 10:31:24;;;;;;;;;18.33;17.67;;;;;;;;5154152;27;44674;-77
2021/07/23 10:33:56;;;;;;;;;16.33;16.33;;;;;;;;5157616;27;47281;-76
2021/07/23 10:36:31;;;;;;;;;20.00;20.00;;;;;;;;5159878;27;46305;-77
2021/07/23 10:39:23;;;;;;;;;18.67;17.33;;;;;;;;5161909;27;45314;-78
2021/07/23 10:41:51;;;;;;;;;18.00;18.00;;;;;;;;5158461;27;45169;-77
2021/07/23 10:44:29;;;;;;;;;20.00;19.67;;;;;;;;5162736;27;44761;-77
2021/07/23 10:46:55;;;;;;;;;20.00;20.00;;;;;;;;5164053;27;46236;-78
2021/07/23 10:49:27;;;;;;;;;16.67;15.00;;;;;;;;5159482;27;45157;-77
2021/07/23 10:51:55;;;;;;;;;17.33;16.33;;;;;;;;5160014;27;44759;-78
2021/07/23 10:54:21;;;;;;;;;18.00;18.00;;;;;;;;5162687;27;45181;-77
2021/07/23 10:56:56;;;;;;;;;19.33;18.33;;;;;;;;5165680;27;46752;-77
2021/07/23 10:59:44;;;;;;;;;19.33;18.00;;;;;;;;5163134;27;44562;-78
2021/07/23 11:02:16;;;;;;;;;21.00;17.67;;;;;;;;5162015;27;45182;-78
2021/07/23 11:04:42;;;;;;;;;16.00;15.00;;;;;;;;5156789;27;45497;-78
2021/07/23 11:07:08;;;;;;;;;15.67;15.67;;;;;;;;5157930;27;45176;-77
2021/07/23 11:09:36;;;;;;;;;28.00;27.67;;;;;;;;5159532;27;44605;-79
2021/07/23 11:12:20;;;;;;;;;32.33;30.00;;;;;;;;5159193;27;45261;-78
2021/07/23 11:14:54;;;;;;;;;22.33;21.00;;;;;;;;5158026;27;46254;-78
2021/07/23 11:17:20;;;;;;;;;17.33;17.33;;;;;;;;5156554;27;45324;-75
2021/07/23 11:19:46;;;;;;;;;19.67;18.33;;;;;;;;5156940;27;45289;-75
2021/07/23 11:22:11;;;;;;;;;20.00;17.00;;;;;;;;5154004;27;45340;-76
2021/07/23 11:24:37;;;;;;;;;19.33;17.67;;;;;;;;5156655;27;45254;-76
2021/07/23 11:27:02;;;;;;;;;18.33;18.33;;;;;;;;5155277;27;45365;-75
2021/07/23 11:29:31;;;;;;;;;14.00;14.00;;;;;;;;5157918;27;45262;-76
2021/07/23 11:32:08;;;;;;;;;13.33;13.33;;;;;;;;5155065;27;44633;-76
2021/07/23 11:34:44;;;;;;;;;14.67;14.67;;;;;;;;5154630;27;45745;-77
2021/07/23 11:37:29;;;;;;;;;15.67;13.33;;;;;;;;5156412;27;45329;-78
2021/07/23 11:39:54;;;;;;;;;13.33;13.33;;;;;;;;5154475;27;45211;-77
2021/07/23 11:42:20;;;;;;;;;13.67;13.00;;;;;;;;5158807;27;44612;-78
2021/07/23 11:44:59;;;;;;;;;16.33;16.33;;;;;;;;5161022;27;44788;-78
2021/07/23 11:47:34;;;;;;;;;18.33;17.00;;;;;;;;5152634;27;47215;-78
2021/07/23 11:50:00;;;;;;;;;14.67;14.67;;;;;;;;5156493;27;44707;-78
2021/07/23 11:52:26;;;;;;;;;17.00;16.67;;;;;;;;5156608;27;45245;-77
2021/07/23 11:54:55;;;;;;;;;17.00;16.67;;;;;;;;5156300;27;45411;-77
2021/07/23 11:57:20;;;;;;;;;16.67;15.67;;;;;;;;5158753;27;46151;-78
2021/07/23 11:59:45;;;;;;;;;17.33;17.00;;;;;;;;5161913;27;45305;-78
2021/07/23 12:02:10;;;;;;;;;18.67;17.33;;;;;;;;5144366;27;44684;-77
2021/07/23 12:04:41;;;;;;;;;16.67;16.67;;;;;;;;5162388;27;45600;-78
2021/07/23 12:07:06;;;;;;;;;16.00;16.00;;;;;;;;5158269;27;47366;-75
2021/07/23 12:09:31;;;;;;;;;15.33;14.67;;;;;;;;5155116;27;45301;-78
2021/07/23 12:11:57;;;;;;;;;16.33;15.00;;;;;;;;5160344;27;45020;-77
2021/07/23 12:14:23;;;;;;;;;15.67;14.00;;;;;;;;5158468;27;45257;-78
2021/07/23 12:16:51;;;;;;;;;13.33;13.33;;;;;;;;5162609;27;45450;-78
2021/07/23 12:19:17;;;;;;;;;14.67;14.67;;;;;;;;5158339;27;45401;-75
2021/07/23 12:21:42;;;;;;;;;16.67;15.33;;;;;;;;5156271;27;44617;-76
2021/07/23 12:24:09;;;;;;;;;15.67;15.33;;;;;;;;5157546;27;45283;-76
2021/07/23 12:26:35;;;;;;;;;14.67;14.67;;;;;;;;5162465;27;45529;-76
2021/07/23 12:29:01;;;;;;;;;18.33;16.33;;;;;;;;5161499;27;45304;-78
2021/07/23 12:31:26;;;;;;;;;17.00;16.33;;;;;;;;5162556;27;44578;-75
2021/07/23 12:34:00;;;;;;;;;19.33;16.33;;;;;;;;5157186;27;45542;-74
2021/07/23 12:36:26;;;;;;;;;19.67;18.00;;;;;;;;5156762;27;46221;-77
2021/07/23 12:39:03;;;;;;;;;18.00;17.00;;;;;;;;5160358;27;45255;-75
2021/07/23 12:41:29;;;;;;;;;16.67;16.67;;;;;;;;5158330;27;44721;-76
2021/07/23 12:44:04;;;;;;;;;20.33;19.00;;;;;;;;5154924;27;45228;-75
2021/07/23 12:46:30;;;;;;;;;16.33;16.00;;;;;;;;5155201;27;46088;-74
2021/07/23 12:48:55;;;;;;;;;16.67;16.33;;;;;;;;5139136;27;45317;-76
2021/07/23 12:51:24;;;;;;;;;15.33;14.67;;;;;;;;5155606;27;45300;-76
2021/07/23 12:53:56;;;;;;;;;17.00;16.33;;;;;;;;5155004;27;45059;-75
2021/07/23 12:56:28;;;;;;;;;18.00;17.67;;;;;;;;5158348;27;45448;-75
2021/07/23 12:58:56;;;;;;;;;17.00;17.00;;;;;;;;5161763;27;44585;-75
2021/07/23 13:01:21;;;;;;;;;17.67;16.33;;;;;;;;5155546;27;45454;-76
2021/07/23 13:03:46;;;;;;;;;15.00;14.00;;;;;;;;5159261;27;45598;-76
2021/07/23 13:06:16;;;;;;;;;20.67;20.67;;;;;;;;5159822;27;47449;-74
2021/07/23 13:08:42;;;;;;;;;15.33;15.33;;;;;;;;5159254;27;45259;-76
2021/07/23 13:11:08;;;;;;;;;17.33;17.00;;;;;;;;5155799;27;45165;-76
2021/07/23 13:13:37;;;;;;;;;16.67;15.33;;;;;;;;5160625;27;44762;-75
2021/07/23 13:16:04;;;;;;;;;16.67;16.33;;;;;;;;5157586;27;46657;-75
2021/07/23 13:18:29;;;;;;;;;18.00;17.00;;;;;;;;5161438;27;45309;-74
2021/07/23 13:20:54;;;;;;;;;13.67;13.67;;;;;;;;5160010;27;45576;-76
2021/07/23 13:23:19;;;;;;;;;17.00;15.33;;;;;;;;5163988;27;46010;-78
2021/07/23 13:25:45;;;;;;;;;16.00;15.67;;;;;;;;5161055;27;45447;-76
2021/07/23 13:28:10;;;;;;;;;16.67;16.67;;;;;;;;5163085;27;45138;-77
2021/07/23 13:30:35;;;;;;;;;16.00;15.33;;;;;;;;5151424;27;44714;-77
2021/07/23 13:33:01;;;;;;;;;17.67;16.67;;;;;;;;5143577;27;45984;-77
2021/07/23 13:35:26;;;;;;;;;17.00;17.00;;;;;;;;5140793;27;46063;-77
2021/07/23 13:37:52;;;;;;;;;16.00;16.00;;;;;;;;5144585;27;44595;-79
2021/07/23 13:40:21;;;;;;;;;15.67;15.67;;;;;;;;5144468;27;44658;-76
2021/07/23 13:42:47;;;;;;;;;13.67;13.67;;;;;;;;5143509;27;46275;-77
2021/07/23 13:45:14;;;;;;;;;14.67;14.00;;;;;;;;5143677;27;46220;-78
2021/07/23 13:47:39;;;;;;;;;14.00;14.00;;;;;;;;5144916;27;44680;-78
2021/07/23 13:50:05;;;;;;;;;17.00;16.67;;;;;;;;5140768;27;45289;-77
2021/07/23 13:52:30;;;;;;;;;20.67;18.33;;;;;;;;5142546;27;44595;-78
2021/07/23 13:54:55;;;;;;;;;16.67;16.33;;;;;;;;5145886;27;46286;-77
2021/07/23 13:57:20;;;;;;;;;20.67;20.00;;;;;;;;5145104;27;44572;-77
2021/07/23 13:59:46;;;;;;;;;18.67;18.33;;;;;;;;5144475;27;44716;-77
2021/07/23 14:02:11;;;;;;;;;16.00;16.00;;;;;;;;5140326;27;45145;-75
2021/07/23 14:04:36;;;;;;;;;16.67;16.33;;;;;;;;5137503;27;47188;-78
2021/07/23 14:07:04;;;;;;;;;20.00;17.00;;;;;;;;5142246;27;45148;-77
2021/07/23 14:09:30;;;;;;;;;18.00;18.00;;;;;;;;5140228;27;45234;-76
2021/07/23 14:11:55;;;;;;;;;16.00;16.00;;;;;;;;5140539;27;45964;-78